Time;durP1;ratioP1;P1;durP2;ratioP2;P2;SDS_P1;SDS_P2;PMS_P1;PMS_P2;Temp;Humidity;BMP_temperature;BMP_pressure;BME280_temperature;BME280_humidity;BME280_pressure;Samples;Min_cycle;Max_cycle;Signal;HPM_P1;HPM_P2
2023/01/17 00:01:05;;;;;;;5.33;1.10;;;;;;;5.53;79.32;97605.78;5074458;28;20500;-65
2023/01/17 00:03:32;;;;;;;4.70;1.30;;;;;;;5.53;79.52;97592.34;5075052;28;20445;-65
2023/01/17 00:11:28;;;;;;;5.77;1.23;;;;;;;5.50;79.56;97593.06;5074316;28;20436;-65
2023/01/17 00:13:54;;;;;;;5.40;1.20;;;;;;;5.52;79.47;97580.06;5074494;28;20818;-65
2023/01/17 00:16:21;;;;;;;5.90;1.37;;;;;;;5.53;78.94;97573.56;5074065;28;20488;-66
2023/01/17 01:35:58;;;;;;;4.87;1.40;;;;;;;5.37;79.80;97527.13;5073401;28;20478;-67
2023/01/17 01:38:25;;;;;;;5.80;1.50;;;;;;;5.35;80.19;97516.72;5072828;28;20213;-68
2023/01/17 01:40:54;;;;;;;5.07;1.27;;;;;;;5.39;79.86;97525.66;5073327;28;20463;-68
2023/01/17 01:43:41;;;;;;;5.10;1.40;;;;;;;5.40;79.29;97518.38;5073097;28;20451;-69
2023/01/17 01:46:09;;;;;;;5.23;1.60;;;;;;;5.35;79.48;97518.63;5072710;28;20483;-67
2023/01/17 01:48:41;;;;;;;5.00;1.27;;;;;;;5.32;79.46;97520.88;5072970;28;20927;-67
2023/01/17 01:51:11;;;;;;;7.07;1.30;;;;;;;5.32;79.68;97523.56;5073004;28;20469;-68
2023/01/17 01:53:42;;;;;;;5.60;1.50;;;;;;;5.25;79.82;97518.00;5072898;28;20444;-68
2023/01/17 02:02:57;;;;;;;6.13;1.70;;;;;;;5.33;78.93;97510.91;5077124;28;20957;-67
2023/01/17 02:05:27;;;;;;;5.00;1.27;;;;;;;5.27;80.00;97515.75;5076963;28;20425;-67
2023/01/17 02:07:58;;;;;;;9.50;1.87;;;;;;;5.33;79.53;97510.91;5076632;28;20488;-68
2023/01/17 02:10:25;;;;;;;6.10;1.70;;;;;;;5.31;79.45;97510.47;5076791;28;20564;-69
2023/01/17 02:12:52;;;;;;;5.73;1.50;;;;;;;5.28;79.72;97517.31;5076488;28;20977;-67
2023/01/17 02:15:22;;;;;;;5.77;1.13;;;;;;;5.24;79.96;97508.38;5076990;28;20437;-69
2023/01/17 02:24:58;;;;;;;4.60;1.00;;;;;;;5.14;80.97;97500.84;5076652;28;20388;-67
2023/01/17 02:27:27;;;;;;;4.93;1.30;;;;;;;5.13;80.74;97496.56;5076210;28;20436;-68
2023/01/17 02:30:27;;;;;;;4.80;1.30;;;;;;;5.13;81.31;97499.25;5075938;28;20539;-68
2023/01/17 02:33:03;;;;;;;5.83;1.40;;;;;;;5.14;81.09;97498.16;5076391;28;20513;-67
2023/01/17 02:35:40;;;;;;;5.70;1.40;;;;;;;5.12;80.97;97491.56;5076419;28;20429;-68
2023/01/17 02:38:17;;;;;;;6.97;1.67;;;;;;;5.04;81.37;97491.34;5076381;28;20508;-68
2023/01/17 02:40:49;;;;;;;5.90;1.13;;;;;;;5.11;80.75;97498.81;5076243;28;20508;-68
2023/01/17 02:43:18;;;;;;;6.10;1.53;;;;;;;5.12;81.50;97492.31;5076263;28;20421;-67
2023/01/17 02:45:46;;;;;;;6.13;1.43;;;;;;;5.11;81.22;97490.78;5076136;28;20539;-67
2023/01/17 02:48:16;;;;;;;5.53;1.33;;;;;;;5.13;81.36;97499.25;5075794;28;20885;-65
2023/01/17 02:51:11;;;;;;;5.30;1.40;;;;;;;5.18;81.38;97501.72;5076024;28;21014;-67
2023/01/17 02:53:53;;;;;;;6.00;1.33;;;;;;;5.22;81.05;97499.91;5075837;28;20421;-67
2023/01/17 02:56:34;;;;;;;7.00;1.80;;;;;;;5.25;81.95;97495.75;5075955;28;20469;-68
2023/01/17 02:59:14;;;;;;;5.57;1.30;;;;;;;5.23;81.72;97500.69;5076003;28;20432;-67
2023/01/17 03:01:55;;;;;;;6.57;1.20;;;;;;;5.32;82.30;97506.69;5075829;28;20543;-67
2023/01/17 03:04:27;;;;;;;7.77;1.67;;;;;;;5.38;83.74;97515.25;5075594;28;20431;-68
2023/01/17 03:06:58;;;;;;;5.47;1.10;;;;;;;5.36;84.17;97504.88;5075472;28;20954;-67
2023/01/17 03:09:26;;;;;;;4.40;1.20;;;;;;;5.37;84.63;97506.44;5075397;28;20441;-67
2023/01/17 03:11:53;;;;;;;5.00;1.23;;;;;;;5.41;83.55;97511.91;5075335;28;20981;-66
2023/01/17 03:14:20;;;;;;;4.50;0.80;;;;;;;5.45;84.44;97520.84;5075350;28;20448;-68
2023/01/17 03:16:48;;;;;;;4.80;1.03;;;;;;;5.45;85.36;97510.09;5075552;28;20481;-67
2023/01/17 03:19:14;;;;;;;4.87;1.23;;;;;;;5.45;84.48;97499.34;5075601;28;20448;-67
2023/01/17 03:21:41;;;;;;;5.07;0.80;;;;;;;5.43;85.99;97504.28;5075391;28;20465;-67
2023/01/17 03:24:08;;;;;;;4.37;0.87;;;;;;;5.49;85.23;97506.38;5075533;28;20443;-67
2023/01/17 03:26:35;;;;;;;4.60;1.10;;;;;;;5.56;85.25;97508.47;5075102;28;20985;-67
2023/01/17 03:29:02;;;;;;;4.47;0.83;;;;;;;5.57;85.79;97513.47;5075505;28;20480;-68
2023/01/17 03:31:28;;;;;;;5.43;0.93;;;;;;;5.61;85.38;97500.16;5074900;28;20481;-67
2023/01/17 03:33:56;;;;;;;4.30;0.93;;;;;;;5.57;86.44;97494.69;5075352;28;20479;-67
2023/01/17 03:36:23;;;;;;;4.20;0.77;;;;;;;5.59;86.07;97493.59;5075231;28;20481;-67
2023/01/17 03:38:49;;;;;;;4.57;0.80;;;;;;;5.69;85.99;97503.81;5074910;28;20453;-67
2023/01/17 03:41:16;;;;;;;4.50;0.70;;;;;;;5.70;85.43;97503.44;5075210;28;20866;-67
2023/01/17 03:43:42;;;;;;;5.80;1.00;;;;;;;5.74;85.40;97501.63;5074829;28;20953;-68
2023/01/17 03:46:19;;;;;;;5.63;1.03;;;;;;;5.68;85.76;97503.03;5074829;28;20818;-67
2023/01/17 03:48:46;;;;;;;5.43;0.83;;;;;;;5.71;86.24;97496.97;5074781;28;20426;-68
2023/01/17 03:51:14;;;;;;;4.87;0.90;;;;;;;5.75;86.34;97502.41;5075014;28;20504;-68
2023/01/17 03:53:40;;;;;;;4.40;0.73;;;;;;;5.75;87.17;97505.88;5075030;28;20439;-67
2023/01/17 03:56:07;;;;;;;4.67;0.90;;;;;;;5.77;86.24;97511.69;5074725;28;20476;-67
2023/01/17 03:58:34;;;;;;;4.73;0.97;;;;;;;5.77;86.32;97516.28;5074990;28;20810;-68
2023/01/17 04:01:01;;;;;;;4.73;0.80;;;;;;;5.78;87.27;97513.25;5074640;28;20918;-68
2023/01/17 04:03:27;;;;;;;4.97;1.00;;;;;;;5.83;86.75;97517.59;5074695;28;20537;-68
2023/01/17 04:05:54;;;;;;;6.03;1.17;;;;;;;5.84;86.66;97524.50;5074371;28;20876;-68
2023/01/17 04:08:22;;;;;;;8.83;1.17;;;;;;;5.88;87.38;97520.03;5074857;28;20437;-69
2023/01/17 04:10:49;;;;;;;4.30;0.97;;;;;;;5.88;86.54;97522.69;5074460;28;20464;-67
2023/01/17 04:13:16;;;;;;;4.83;0.93;;;;;;;5.85;86.53;97528.00;5074261;28;20452;-67
2023/01/17 04:15:44;;;;;;;4.27;0.70;;;;;;;5.88;87.24;97527.31;5074207;28;20445;-68
2023/01/17 04:18:12;;;;;;;5.23;1.07;;;;;;;5.86;87.30;97526.88;5073531;28;20481;-68
2023/01/17 04:20:40;;;;;;;4.63;0.90;;;;;;;5.86;87.64;97534.94;5074320;28;20469;-68
2023/01/17 04:23:07;;;;;;;4.23;0.63;;;;;;;5.83;87.19;97531.03;5074040;28;20959;-68
2023/01/17 04:25:35;;;;;;;4.30;0.73;;;;;;;5.86;87.53;97540.31;5074364;28;20437;-68
2023/01/17 04:28:03;;;;;;;4.53;0.80;;;;;;;5.88;87.54;97538.03;5073986;28;20446;-68
2023/01/17 04:30:31;;;;;;;4.53;0.97;;;;;;;5.90;87.31;97536.59;5073723;28;20530;-67
2023/01/17 04:32:58;;;;;;;4.50;0.73;;;;;;;5.89;88.35;97550.34;5074210;28;20537;-68
2023/01/17 04:35:25;;;;;;;4.30;0.83;;;;;;;5.92;89.44;97541.63;5074081;28;20447;-68
2023/01/17 04:37:52;;;;;;;4.10;0.70;;;;;;;5.87;92.46;97548.00;5074048;28;20507;-69
2023/01/17 04:40:19;;;;;;;5.00;0.80;;;;;;;5.84;92.58;97546.00;5073998;28;20569;-70
2023/01/17 04:42:48;;;;;;;4.20;0.70;;;;;;;5.72;93.27;97549.56;5073981;28;20445;-69
2023/01/17 04:45:15;;;;;;;5.60;0.83;;;;;;;5.66;94.64;97547.44;5073973;28;20429;-67
2023/01/17 04:47:42;;;;;;;3.93;0.60;;;;;;;5.59;95.74;97548.06;5073926;28;20438;-68
2023/01/17 04:50:10;;;;;;;4.10;0.63;;;;;;;5.55;95.01;97556.00;5073826;28;20548;-68
2023/01/17 04:52:37;;;;;;;4.43;0.73;;;;;;;5.55;95.66;97547.94;5073734;28;20437;-67
2023/01/17 04:55:04;;;;;;;4.43;0.63;;;;;;;5.53;94.80;97555.59;5073440;28;20490;-68
2023/01/17 04:57:31;;;;;;;4.60;0.70;;;;;;;5.55;94.74;97549.84;5073836;28;20571;-68
2023/01/17 04:59:59;;;;;;;4.53;1.03;;;;;;;5.55;94.66;97563.28;5073514;28;20456;-67
2023/01/17 05:02:26;;;;;;;5.03;0.97;;;;;;;5.57;95.38;97561.78;5073590;28;20480;-69
2023/01/17 05:04:52;;;;;;;4.40;0.77;;;;;;;5.61;94.41;97564.59;5073586;28;20473;-67
2023/01/17 05:07:19;;;;;;;5.07;0.70;;;;;;;5.64;94.33;97571.97;5073582;28;20464;-69
2023/01/17 05:09:46;;;;;;;4.47;0.70;;;;;;;5.67;93.65;97565.13;5073465;28;20477;-69
2023/01/17 05:12:13;;;;;;;4.20;0.70;;;;;;;5.71;94.44;97588.28;5073404;28;20441;-68
2023/01/17 05:14:39;;;;;;;3.90;0.60;;;;;;;5.74;94.31;97576.84;5073525;28;20480;-68
2023/01/17 05:17:09;;;;;;;4.40;0.80;;;;;;;5.76;93.28;97588.03;5073362;28;20495;-68
2023/01/17 05:19:36;;;;;;;5.70;0.50;;;;;;;5.83;93.50;97590.09;5073476;28;20520;-68
2023/01/17 05:22:13;;;;;;;3.90;0.50;;;;;;;5.84;93.58;97586.28;5073241;28;20469;-68
2023/01/17 05:24:40;;;;;;;4.60;0.70;;;;;;;5.80;94.44;97586.22;5073338;28;20433;-68
2023/01/17 05:27:06;;;;;;;4.30;0.73;;;;;;;5.83;94.01;97590.09;5073296;28;20465;-67
2023/01/17 05:29:33;;;;;;;4.10;0.80;;;;;;;5.75;93.03;97597.19;5072432;28;20483;-68
2023/01/17 05:32:00;;;;;;;3.80;0.50;;;;;;;5.74;93.79;97598.31;5073005;28;20480;-67
2023/01/17 05:34:27;;;;;;;4.20;0.63;;;;;;;5.66;94.76;97609.19;5073154;28;20443;-68
2023/01/17 05:36:54;;;;;;;4.50;1.10;;;;;;;5.69;94.98;97612.00;5073066;28;20568;-68
2023/01/17 05:39:21;;;;;;;4.30;0.70;;;;;;;5.66;93.29;97614.56;5073267;28;20539;-67
2023/01/17 05:41:47;;;;;;;4.47;0.87;;;;;;;5.67;93.64;97619.63;5072813;28;21002;-68
2023/01/17 05:44:15;;;;;;;4.30;0.70;;;;;;;5.72;93.46;97622.06;5073750;28;20437;-68
2023/01/17 05:46:42;;;;;;;4.43;0.90;;;;;;;5.79;91.39;97630.28;5072537;28;20451;-67
2023/01/17 05:49:08;;;;;;;4.00;0.70;;;;;;;5.78;91.41;97636.78;5072651;28;20481;-65
2023/01/17 05:51:38;;;;;;;4.07;0.70;;;;;;;5.77;91.52;97632.56;5072541;28;20461;-66
2023/01/17 05:54:05;;;;;;;4.40;0.87;;;;;;;5.74;90.72;97635.91;5073164;28;20448;-67
2023/01/17 05:56:32;;;;;;;4.40;0.70;;;;;;;5.76;91.01;97638.28;5072536;28;20961;-67
2023/01/17 05:58:59;;;;;;;4.60;1.13;;;;;;;5.78;92.48;97642.16;5072852;28;20482;-68
2023/01/17 06:01:25;;;;;;;15.03;1.10;;;;;;;5.75;93.01;97642.06;5072897;28;20551;-66
2023/01/17 06:03:52;;;;;;;4.13;0.70;;;;;;;5.72;91.94;97646.22;5073010;28;20445;-67
2023/01/17 06:06:18;;;;;;;4.83;1.10;;;;;;;5.74;91.69;97654.72;5072913;28;20503;-67
2023/01/17 06:08:46;;;;;;;3.90;0.60;;;;;;;5.65;91.21;97650.59;5072791;28;21029;-66
2023/01/17 06:11:13;;;;;;;5.00;0.70;;;;;;;5.61;91.65;97669.28;5072780;28;20544;-67
2023/01/17 06:13:40;;;;;;;4.33;0.80;;;;;;;5.64;91.25;97674.00;5072676;28;20499;-67
2023/01/17 06:16:07;;;;;;;4.53;1.00;;;;;;;5.61;91.26;97680.03;5072902;28;20511;-66
2023/01/17 06:18:33;;;;;;;4.57;0.93;;;;;;;5.67;91.15;97686.75;5072425;28;20481;-67
2023/01/17 06:21:00;;;;;;;4.20;0.90;;;;;;;5.73;90.89;97690.75;5072647;28;20463;-67
2023/01/17 06:23:27;;;;;;;4.20;0.63;;;;;;;5.72;90.69;97693.78;5072652;28;20451;-68
2023/01/17 06:25:55;;;;;;;4.17;0.60;;;;;;;5.73;90.58;97687.28;5072762;28;20441;-67
2023/01/17 06:28:22;;;;;;;4.10;0.70;;;;;;;5.81;90.25;97703.25;5072690;28;20833;-67
2023/01/17 06:30:49;;;;;;;4.13;0.77;;;;;;;5.88;89.67;97691.16;5072365;28;20568;-67
2023/01/17 06:33:16;;;;;;;6.07;0.90;;;;;;;5.83;90.14;97692.16;5072566;28;20437;-67
2023/01/17 06:35:47;;;;;;;4.53;0.90;;;;;;;5.82;89.97;97686.03;5072669;28;20441;-66
2023/01/17 06:38:14;;;;;;;4.90;1.17;;;;;;;5.83;89.72;97697.53;5072735;28;20472;-67
2023/01/17 06:40:40;;;;;;;4.03;0.73;;;;;;;5.84;89.96;97691.03;5072895;28;20473;-66
2023/01/17 06:43:08;;;;;;;4.97;1.03;;;;;;;5.80;90.39;97685.59;5075932;28;20960;-66
2023/01/17 06:45:35;;;;;;;4.30;0.80;;;;;;;5.74;91.85;97691.53;5076131;28;20445;-66
2023/01/17 06:48:03;;;;;;;4.10;0.67;;;;;;;5.75;91.42;97704.59;5076226;28;20539;-66
2023/01/17 06:50:31;;;;;;;4.60;1.17;;;;;;;5.75;91.33;97711.88;5076000;28;20457;-66
2023/01/17 06:52:59;;;;;;;4.00;0.67;;;;;;;5.68;91.10;97715.16;5076096;28;20429;-66
2023/01/17 06:55:28;;;;;;;4.03;0.60;;;;;;;5.70;92.21;97717.50;5075804;28;20536;-67
2023/01/17 06:57:55;;;;;;;4.40;0.63;;;;;;;5.73;91.77;97725.66;5075956;28;20480;-66
2023/01/17 07:00:23;;;;;;;5.53;0.80;;;;;;;5.72;92.30;97726.00;5075956;28;20461;-68
2023/01/17 07:02:51;;;;;;;4.30;0.87;;;;;;;5.68;94.09;97730.50;5075661;28;20447;-66
2023/01/17 07:05:18;;;;;;;6.60;0.83;;;;;;;5.66;92.84;97725.44;5075872;28;20464;-66
2023/01/17 07:07:45;;;;;;;4.10;0.80;;;;;;;5.70;92.10;97731.69;5075810;28;20520;-66
2023/01/17 07:10:14;;;;;;;4.30;0.87;;;;;;;5.70;92.50;97737.06;5075424;28;20460;-66
2023/01/17 07:12:41;;;;;;;4.07;0.80;;;;;;;5.68;92.04;97738.53;5075762;28;20461;-66
2023/01/17 07:15:09;;;;;;;5.00;0.90;;;;;;;5.71;91.26;97748.59;5076003;28;20444;-66
2023/01/17 07:17:37;;;;;;;5.40;1.37;;;;;;;5.62;90.92;97740.66;5075710;28;20532;-66
2023/01/17 07:20:04;;;;;;;4.30;0.97;;;;;;;5.60;90.96;97744.81;5077177;28;20500;-65
2023/01/17 07:22:31;;;;;;;4.70;0.97;;;;;;;5.59;90.13;97756.69;5075699;28;20477;-65
2023/01/17 07:24:58;;;;;;;4.53;0.90;;;;;;;5.63;91.13;97747.63;5075621;28;20465;-65
2023/01/17 07:27:26;;;;;;;4.00;0.77;;;;;;;5.60;90.99;97748.28;5075541;28;20499;-70
2023/01/17 07:29:53;;;;;;;4.27;0.83;;;;;;;5.60;91.68;97752.88;5075265;28;20477;-63
2023/01/17 07:32:19;;;;;;;4.47;0.83;;;;;;;5.59;90.81;97749.41;5099576;22;20497;-69
2023/01/17 07:34:47;;;;;;;4.73;0.83;;;;;;;5.53;91.72;97748.06;5075194;28;20437;-69
2023/01/17 07:37:14;;;;;;;4.50;0.70;;;;;;;5.59;90.71;97749.41;5075491;28;20445;-69
2023/01/17 07:39:40;;;;;;;4.03;0.80;;;;;;;5.54;90.41;97746.97;5075058;28;20529;-69
2023/01/17 07:42:07;;;;;;;4.63;1.20;;;;;;;5.55;90.19;97757.34;5075141;28;20476;-70
2023/01/17 07:44:34;;;;;;;5.17;0.83;;;;;;;5.57;89.36;97763.16;5075176;28;20445;-67
2023/01/17 07:47:01;;;;;;;4.00;0.70;;;;;;;5.57;89.19;97767.75;5075202;28;20441;-66
2023/01/17 07:49:27;;;;;;;4.30;0.90;;;;;;;5.59;89.50;97762.84;5074972;28;20894;-67
2023/01/17 07:51:55;;;;;;;4.80;1.20;;;;;;;5.61;88.50;97763.25;5074900;28;20461;-66
2023/01/17 07:54:22;;;;;;;4.50;1.00;;;;;;;5.67;89.31;97770.00;5074506;28;20532;-65
2023/01/17 07:56:48;;;;;;;4.00;0.80;;;;;;;5.68;88.77;97779.59;5075215;28;20474;-65
2023/01/17 07:59:15;;;;;;;4.10;0.80;;;;;;;5.70;87.72;97780.03;5075075;28;20491;-64
2023/01/17 08:01:42;;;;;;;4.40;1.00;;;;;;;5.66;88.64;97773.00;5074766;28;20473;-64
2023/01/17 08:04:09;;;;;;;4.10;0.73;;;;;;;5.65;88.56;97772.22;5074823;28;20455;-64
2023/01/17 08:06:37;;;;;;;4.30;0.90;;;;;;;5.71;88.08;97778.13;5074493;28;20541;-65
2023/01/17 08:09:05;;;;;;;4.97;1.37;;;;;;;5.64;88.20;97778.72;5074761;28;20434;-64
2023/01/17 08:11:32;;;;;;;4.70;0.77;;;;;;;5.65;88.40;97785.63;5075195;28;20519;-63
2023/01/17 08:13:59;;;;;;;4.77;1.10;;;;;;;5.69;88.53;97785.75;5074694;28;20961;-63
2023/01/17 08:16:27;;;;;;;4.00;0.87;;;;;;;5.72;87.98;97783.19;5075474;28;20481;-63
2023/01/17 08:18:54;;;;;;;4.40;0.90;;;;;;;5.79;87.64;97788.75;5075181;28;20543;-62
2023/01/17 08:21:23;;;;;;;4.20;0.87;;;;;;;5.79;87.59;97790.66;5075220;28;20457;-63
2023/01/17 08:23:49;;;;;;;5.13;1.10;;;;;;;5.74;87.42;97797.03;5075217;28;20445;-64
2023/01/17 08:26:21;;;;;;;5.17;1.10;;;;;;;5.75;87.55;97803.97;5074779;28;20476;-62
2023/01/17 08:28:48;;;;;;;5.40;0.90;;;;;;;5.74;87.51;97802.41;5074624;28;20424;-63
2023/01/17 08:31:16;;;;;;;4.03;0.80;;;;;;;5.67;87.53;97799.53;5074021;28;20449;-63
2023/01/17 08:33:43;;;;;;;4.17;0.87;;;;;;;5.65;87.93;97793.69;5074066;28;20426;-63
2023/01/17 08:36:09;;;;;;;4.30;0.80;;;;;;;5.61;87.85;97802.75;5074222;28;20609;-65
2023/01/17 08:38:36;;;;;;;4.50;0.90;;;;;;;5.59;88.03;97805.78;5074081;28;20489;-62
2023/01/17 08:41:02;;;;;;;4.83;1.07;;;;;;;5.64;87.96;97812.84;5073763;28;20441;-62
2023/01/17 08:43:30;;;;;;;4.77;1.00;;;;;;;5.69;87.62;97820.66;5074111;28;20450;-61
2023/01/17 08:45:57;;;;;;;4.30;0.80;;;;;;;5.70;86.78;97833.75;5074010;28;20533;-63
2023/01/17 08:48:23;;;;;;;4.50;1.00;;;;;;;5.72;85.69;97826.16;5073951;28;20875;-63
2023/01/17 08:50:50;;;;;;;4.73;0.83;;;;;;;5.78;85.90;97832.84;5073845;28;20436;-61
2023/01/17 08:53:20;;;;;;;4.40;0.80;;;;;;;5.80;86.01;97829.84;5073715;28;20468;-65
2023/01/17 08:55:47;;;;;;;4.23;0.80;;;;;;;5.80;86.01;97833.31;5073805;28;20491;-64
2023/01/17 08:58:13;;;;;;;4.60;1.10;;;;;;;5.78;85.62;97843.59;5073793;28;20583;-63
2023/01/17 09:00:41;;;;;;;4.50;0.93;;;;;;;5.80;85.40;97840.59;5073736;28;20442;-64
2023/01/17 09:03:12;;;;;;;4.43;0.80;;;;;;;5.85;85.15;97851.09;5073769;28;20457;-64
2023/01/17 09:05:39;;;;;;;5.40;1.10;;;;;;;5.91;85.11;97862.38;5073568;28;20465;-64
2023/01/17 09:08:06;;;;;;;4.03;0.63;;;;;;;5.95;85.11;97857.94;5073604;28;20433;-64
2023/01/17 09:10:32;;;;;;;4.90;0.97;;;;;;;5.88;84.60;97860.38;5073333;28;20449;-64
2023/01/17 09:12:59;;;;;;;4.20;0.90;;;;;;;5.83;84.91;97864.84;5073123;28;20837;-64
2023/01/17 09:15:26;;;;;;;7.10;1.00;;;;;;;5.81;85.18;97871.69;5073200;28;20823;-64
2023/01/17 09:17:56;;;;;;;4.20;0.70;;;;;;;5.86;85.58;97871.47;5073465;28;20548;-64
2023/01/17 09:20:23;;;;;;;4.50;0.70;;;;;;;5.88;84.99;97871.91;5073221;28;20508;-64
2023/01/17 09:22:50;;;;;;;5.10;0.90;;;;;;;5.80;85.81;97886.25;5073509;28;20461;-62
2023/01/17 09:25:17;;;;;;;5.80;0.97;;;;;;;5.75;86.08;97894.50;5073379;28;20448;-63
2023/01/17 09:27:45;;;;;;;4.90;0.80;;;;;;;5.55;88.78;97890.81;5073258;28;20931;-64
2023/01/17 09:30:12;;;;;;;4.30;0.70;;;;;;;5.48;89.82;97912.03;5073345;28;20512;-64
2023/01/17 09:32:38;;;;;;;4.00;0.70;;;;;;;5.42;90.69;97921.44;5072870;28;20473;-63
2023/01/17 09:35:07;;;;;;;5.20;0.87;;;;;;;5.38;90.73;97921.31;5072977;28;20969;-64
2023/01/17 09:37:34;;;;;;;4.40;0.77;;;;;;;5.41;90.68;97920.66;5073197;28;20442;-62
2023/01/17 09:40:00;;;;;;;4.03;0.80;;;;;;;5.37;91.21;97935.06;5073088;28;20485;-64
2023/01/17 09:42:33;;;;;;;4.53;0.83;;;;;;;5.46;89.10;97930.41;5072843;28;21021;-63
2023/01/17 09:45:00;;;;;;;4.10;0.50;;;;;;;5.36;90.59;97942.34;5073229;28;20425;-63
2023/01/17 09:47:34;;;;;;;4.07;0.87;;;;;;;5.46;89.31;97931.19;5073139;28;20469;-64
2023/01/17 09:50:11;;;;;;;3.80;0.50;;;;;;;5.47;89.72;97934.63;5072895;28;20425;-64
2023/01/17 09:52:39;;;;;;;3.90;0.70;;;;;;;5.50;89.60;97940.13;5073090;28;20556;-63
2023/01/17 09:55:06;;;;;;;6.37;0.70;;;;;;;5.48;89.58;97941.56;5073133;28;20444;-63
2023/01/17 09:57:45;;;;;;;4.13;0.70;;;;;;;5.50;89.54;97939.34;5072768;28;20826;-64
2023/01/17 10:00:27;;;;;;;3.90;0.60;;;;;;;5.49;89.34;97948.50;5073083;28;20468;-61
2023/01/17 10:03:14;;;;;;;4.00;0.63;;;;;;;5.59;88.11;97950.78;5072920;28;20471;-60
2023/01/17 10:05:58;;;;;;;3.80;0.50;;;;;;;5.63;89.28;97957.06;5072636;28;20863;-61
2023/01/17 10:08:38;;;;;;;4.13;0.67;;;;;;;5.57;89.29;97953.78;5072956;28;20505;-61
2023/01/17 10:11:21;;;;;;;3.97;0.60;;;;;;;5.67;88.33;97974.06;5073065;28;20422;-61
2023/01/17 10:14:02;;;;;;;3.93;0.60;;;;;;;5.70;87.66;97972.59;5072904;28;20505;-60
2023/01/17 10:16:40;;;;;;;4.10;0.80;;;;;;;5.68;87.21;97981.00;5074718;28;20843;-62
2023/01/17 10:19:18;;;;;;;3.80;0.50;;;;;;;5.55;87.97;97990.16;5076692;28;21040;-61
2023/01/17 10:22:03;;;;;;;3.83;0.60;;;;;;;5.58;86.65;97994.88;5076755;28;20556;-61
2023/01/17 10:24:54;;;;;;;4.37;0.77;;;;;;;5.57;87.02;98007.47;5076523;28;20421;-62
2023/01/17 10:27:25;;;;;;;5.03;0.70;;;;;;;5.43;86.28;98003.53;5076326;28;20464;-61
2023/01/17 10:29:52;;;;;;;3.90;0.50;;;;;;;5.41;86.43;98005.78;5076792;28;20425;-62
2023/01/17 10:32:23;;;;;;;4.30;0.70;;;;;;;5.42;86.37;98004.66;5076145;28;20491;-62
2023/01/17 10:35:01;;;;;;;4.00;0.60;;;;;;;5.38;86.12;98009.88;5076283;28;20879;-62
2023/01/17 10:37:39;;;;;;;4.27;0.63;;;;;;;5.45;86.42;98012.03;5076333;28;20433;-62
2023/01/17 10:40:16;;;;;;;3.70;0.40;;;;;;;5.55;85.48;98014.31;5076287;28;20473;-61
2023/01/17 10:42:50;;;;;;;4.40;0.70;;;;;;;5.55;85.73;98020.47;5076360;28;20457;-62
2023/01/17 10:45:24;;;;;;;4.13;0.73;;;;;;;5.46;85.51;98022.44;5075987;28;20433;-62
2023/01/17 10:48:02;;;;;;;3.80;0.60;;;;;;;5.49;84.87;98015.63;5076041;28;20894;-60
2023/01/17 10:50:41;;;;;;;3.90;0.57;;;;;;;5.54;84.82;98026.16;5076188;28;20425;-61
2023/01/17 10:53:10;;;;;;;4.30;0.70;;;;;;;5.61;84.57;98029.09;5076057;28;20465;-62
2023/01/17 10:55:44;;;;;;;4.20;0.70;;;;;;;5.52;85.44;98020.34;5075858;28;20808;-62
2023/01/17 10:58:11;;;;;;;4.40;0.67;;;;;;;5.54;84.77;98028.84;5076136;28;20876;-62
2023/01/17 11:00:47;;;;;;;4.50;0.87;;;;;;;5.53;84.87;98035.31;5075927;28;20507;-62
2023/01/17 11:03:16;;;;;;;4.23;0.80;;;;;;;5.55;84.25;98047.31;5075946;28;20461;-64
2023/01/17 11:05:43;;;;;;;3.73;0.40;;;;;;;5.43;84.65;98057.22;5075854;28;20444;-63
2023/01/17 11:08:12;;;;;;;6.37;0.50;;;;;;;5.32;85.20;98046.88;5075583;28;20448;-64
2023/01/17 11:10:43;;;;;;;4.00;0.40;;;;;;;5.24;86.62;98052.31;5075856;28;20438;-64
2023/01/17 11:13:29;;;;;;;4.37;0.53;;;;;;;5.22;86.93;98076.81;5075766;28;20471;-64
2023/01/17 11:15:59;;;;;;;3.90;0.50;;;;;;;4.92;89.25;98076.06;5075642;28;20556;-64
2023/01/17 11:18:29;;;;;;;4.93;0.80;;;;;;;4.63;91.95;98068.03;5076087;28;20429;-64
2023/01/17 11:21:10;;;;;;;4.30;0.67;;;;;;;4.53;93.13;98077.22;5075771;28;20440;-64
2023/01/17 11:23:38;;;;;;;4.10;0.50;;;;;;;4.34;94.51;98077.63;5075639;28;20529;-64
2023/01/17 11:26:09;;;;;;;4.20;0.70;;;;;;;3.97;98.11;98081.84;5075158;28;20964;-63
2023/01/17 11:28:36;;;;;;;5.70;0.50;;;;;;;3.61;100.00;98083.00;5074202;28;20469;-63
2023/01/17 11:31:06;;;;;;;4.33;0.50;;;;;;;3.42;100.00;98079.88;5075353;28;20473;-63
2023/01/17 11:33:52;;;;;;;3.90;0.60;;;;;;;3.40;100.00;98079.41;5075364;28;20453;-63
2023/01/17 11:36:21;;;;;;;3.90;0.60;;;;;;;3.27;100.00;98076.56;5075372;28;20528;-63
2023/01/17 11:38:56;;;;;;;4.00;0.63;;;;;;;3.35;100.00;98082.22;5074837;28;20477;-63
2023/01/17 11:41:26;;;;;;;4.20;0.70;;;;;;;3.49;100.00;98077.50;5075256;28;20465;-63
2023/01/17 11:43:57;;;;;;;3.77;0.50;;;;;;;3.63;100.00;98080.81;5075578;28;20530;-63
2023/01/17 11:46:26;;;;;;;4.47;0.80;;;;;;;3.83;100.00;98071.31;5075397;28;20769;-64
2023/01/17 11:48:55;;;;;;;4.77;0.93;;;;;;;4.13;100.00;98079.44;5075045;28;20442;-63
2023/01/17 11:51:26;;;;;;;4.50;0.90;;;;;;;4.18;100.00;98082.72;5074915;28;20539;-63
2023/01/17 11:53:55;;;;;;;4.60;0.97;;;;;;;4.14;100.00;98087.16;5075024;28;20469;-63
2023/01/17 11:56:30;;;;;;;6.30;1.37;;;;;;;4.06;100.00;98093.31;5074996;28;20449;-64
2023/01/17 11:59:28;;;;;;;4.10;0.80;;;;;;;4.16;100.00;98092.16;5074868;28;20464;-64
2023/01/17 12:02:14;;;;;;;4.83;1.00;;;;;;;4.17;100.00;98086.50;5040753;28;20556;-63
2023/01/17 12:04:45;;;;;;;4.37;0.93;;;;;;;4.18;100.00;98092.66;5074549;28;20874;-64
2023/01/17 12:07:21;;;;;;;4.10;0.80;;;;;;;4.21;100.00;98092.81;5074862;28;20811;-64
2023/01/17 12:10:00;;;;;;;6.83;1.27;;;;;;;4.29;100.00;98096.53;5074851;28;20426;-64
2023/01/17 12:15:41;;;;;;;4.90;1.33;;;;;;;4.89;100.00;98094.69;5074550;28;20405;-64
2023/01/17 12:18:33;;;;;;;5.13;1.20;;;;;;;5.13;100.00;98094.84;5074275;28;20925;-64
2023/01/17 12:21:15;;;;;;;4.27;0.80;;;;;;;5.01;100.00;98092.09;5074795;28;20466;-64
2023/01/17 12:23:57;;;;;;;4.30;0.80;;;;;;;4.99;100.00;98102.38;5074050;28;20437;-64
2023/01/17 12:26:34;;;;;;;5.07;1.33;;;;;;;4.84;100.00;98109.09;5074187;28;20430;-64
2023/01/17 12:29:25;;;;;;;4.90;1.10;;;;;;;4.85;100.00;98101.81;5074466;28;20513;-64
2023/01/17 12:32:04;;;;;;;4.30;0.83;;;;;;;4.67;100.00;98115.31;5074102;28;20505;-64
2023/01/17 12:34:38;;;;;;;4.43;1.00;;;;;;;4.74;100.00;98112.13;5073877;28;20422;-65
2023/01/17 12:37:15;;;;;;;6.33;1.10;;;;;;;4.70;100.00;98116.56;5074296;28;20422;-65
2023/01/17 12:39:46;;;;;;;4.20;0.70;;;;;;;4.66;100.00;98121.00;5073675;28;20551;-64
2023/01/17 12:42:18;;;;;;;5.27;0.70;;;;;;;4.70;100.00;98124.63;5073697;28;20841;-65
2023/01/17 12:44:53;;;;;;;4.30;0.97;;;;;;;4.86;100.00;98130.19;5074241;28;20430;-63
2023/01/17 12:47:21;;;;;;;4.57;1.03;;;;;;;4.89;100.00;98133.03;5073780;28;20429;-65
2023/01/17 12:49:54;;;;;;;10.20;1.23;;;;;;;4.91;98.08;98127.34;5073838;28;20448;-64
2023/01/17 12:52:30;;;;;;;5.07;0.70;;;;;;;4.86;98.16;98138.25;5073862;28;20466;-65
2023/01/17 12:55:03;;;;;;;4.67;1.00;;;;;;;4.85;98.67;98142.03;5073756;28;20436;-64
2023/01/17 12:57:33;;;;;;;4.27;0.60;;;;;;;4.95;99.23;98141.66;5073677;28;20422;-64
2023/01/17 13:00:05;;;;;;;5.13;1.03;;;;;;;5.04;98.58;98150.44;5073744;28;20483;-65
2023/01/17 13:02:37;;;;;;;6.13;1.10;;;;;;;4.98;96.57;98149.06;5073699;28;20544;-65
2023/01/17 13:05:08;;;;;;;11.10;2.30;;;;;;;5.02;97.76;98155.38;5073900;28;20436;-64
2023/01/17 13:07:43;;;;;;;7.90;1.77;;;;;;;4.99;97.27;98147.97;5073542;28;20899;-64
2023/01/17 13:10:23;;;;;;;5.03;1.27;;;;;;;5.04;95.88;98159.28;5073764;28;20500;-65
2023/01/17 13:12:51;;;;;;;4.50;1.10;;;;;;;5.14;93.01;98152.78;5073451;28;20551;-64
2023/01/17 13:15:24;;;;;;;4.10;0.80;;;;;;;5.22;90.78;98160.00;5073533;28;20579;-64
2023/01/17 13:17:56;;;;;;;5.80;1.00;;;;;;;5.25;90.80;98161.22;5073522;28;20508;-64
2023/01/17 13:20:31;;;;;;;4.77;0.93;;;;;;;5.27;91.77;98170.53;5073042;28;20560;-65
2023/01/17 13:23:07;;;;;;;7.43;1.00;;;;;;;5.32;91.89;98172.25;5073355;28;20457;-64
2023/01/17 13:25:42;;;;;;;7.03;1.50;;;;;;;5.41;92.19;98175.66;5073349;28;20494;-64
2023/01/17 13:28:28;;;;;;;9.43;2.03;;;;;;;5.39;91.37;98177.88;5073377;28;20452;-65
2023/01/17 13:31:12;;;;;;;7.40;1.43;;;;;;;5.32;90.55;98173.03;5073243;28;20914;-65
2023/01/17 13:33:54;;;;;;;11.10;3.17;;;;;;;5.26;90.81;98185.03;5073255;28;20483;-63
2023/01/17 13:36:35;;;;;;;9.80;2.70;;;;;;;5.24;93.66;98181.13;5072908;28;20794;-65